createdAt,value
2022-10-05T00:02:25.697Z,16.80
2022-10-05T00:04:54.148Z,16.80
2022-10-05T00:07:21.870Z,16.80
2022-10-05T00:10:09.596Z,16.80
2022-10-05T00:12:36.317Z,16.80
2022-10-05T00:15:03.156Z,16.90
2022-10-05T00:17:29.893Z,16.90
2022-10-05T00:19:56.536Z,16.90
2022-10-05T00:22:31.375Z,16.90
2022-10-05T00:25:10.482Z,16.90
2022-10-05T00:27:37.426Z,16.90
2022-10-05T00:30:15.099Z,16.90
2022-10-05T00:32:41.858Z,16.90
2022-10-05T00:35:09.215Z,16.90
2022-10-05T00:37:35.916Z,16.90
2022-10-05T00:40:04.046Z,16.90
2022-10-05T00:42:49.387Z,16.90
2022-10-05T00:45:18.576Z,16.90
2022-10-05T00:48:03.362Z,16.90
2022-10-05T00:51:04.996Z,16.90
2022-10-05T00:54:06.539Z,16.90
2022-10-05T00:57:03.868Z,16.80
2022-10-05T00:59:30.574Z,16.80
2022-10-05T01:02:07.077Z,16.70
2022-10-05T01:04:45.938Z,16.70
2022-10-05T01:07:27.652Z,16.60
2022-10-05T01:10:06.008Z,16.60
2022-10-05T01:12:51.651Z,16.60
2022-10-05T01:15:25.328Z,16.60
2022-10-05T01:18:12.603Z,16.60
2022-10-05T01:21:13.377Z,16.60
2022-10-05T01:24:07.326Z,16.60
2022-10-05T01:26:52.133Z,16.60
2022-10-05T01:29:22.199Z,16.60
2022-10-05T01:32:03.889Z,16.60
2022-10-05T01:34:49.058Z,16.70
2022-10-05T01:37:28.627Z,16.70
2022-10-05T01:40:05.423Z,16.70
2022-10-05T01:42:43.973Z,16.70
2022-10-05T01:45:47.642Z,16.70
2022-10-05T01:48:41.762Z,16.70
2022-10-05T01:51:33.001Z,16.70
2022-10-05T01:54:09.833Z,16.80
2022-10-05T01:56:52.517Z,16.80
2022-10-05T01:59:44.982Z,16.80
2022-10-05T02:02:14.339Z,16.80
2022-10-05T02:05:01.801Z,16.80
2022-10-05T02:07:48.037Z,16.80
2022-10-05T02:10:42.469Z,16.80
2022-10-05T02:13:38.097Z,16.90
2022-10-05T02:16:27.594Z,16.90
2022-10-05T02:18:55.291Z,16.90
2022-10-05T02:21:22.013Z,16.90
2022-10-05T02:23:50.466Z,16.80
2022-10-05T02:26:17.111Z,16.80
2022-10-05T02:28:56.690Z,16.80
2022-10-05T02:31:43.279Z,16.80
2022-10-05T02:34:30.578Z,16.70
2022-10-05T02:37:20.341Z,16.70
2022-10-05T02:40:28.561Z,16.70
2022-10-05T02:43:01.396Z,16.80
2022-10-05T02:45:51.716Z,16.70
2022-10-05T02:48:27.539Z,16.80
2022-10-05T02:50:57.301Z,16.80
2022-10-05T02:53:43.386Z,16.80
2022-10-05T02:56:31.839Z,16.80
2022-10-05T02:59:20.612Z,16.90
2022-10-05T03:01:55.620Z,16.80
2022-10-05T03:04:41.276Z,16.90
2022-10-05T03:07:17.920Z,16.90
2022-10-05T03:10:01.040Z,16.90
2022-10-05T03:12:53.885Z,16.90
2022-10-05T03:15:39.219Z,16.90
2022-10-05T03:18:16.119Z,16.90
2022-10-05T03:20:57.722Z,16.90
2022-10-05T03:23:36.712Z,16.90
2022-10-05T03:26:18.477Z,16.90
2022-10-05T03:28:57.810Z,16.90
2022-10-05T03:31:33.623Z,16.90
2022-10-05T03:34:09.833Z,16.90
2022-10-05T03:36:52.569Z,16.90
2022-10-05T03:39:30.809Z,16.90
2022-10-05T03:42:03.041Z,16.90
2022-10-05T03:45:23.736Z,16.90
2022-10-05T03:48:00.451Z,16.90
2022-10-05T03:50:28.146Z,16.90
2022-10-05T03:52:57.962Z,16.90
2022-10-05T03:55:33.605Z,16.90
2022-10-05T03:58:03.422Z,16.90
2022-10-05T04:00:30.412Z,16.90
2022-10-05T04:03:21.844Z,16.90
2022-10-05T04:06:01.151Z,16.90
2022-10-05T04:08:34.036Z,16.90
2022-10-05T04:11:04.590Z,16.90
2022-10-05T04:13:34.724Z,16.90
2022-10-05T04:16:25.427Z,16.90
2022-10-05T04:19:22.378Z,16.90
2022-10-05T04:22:05.084Z,16.90
2022-10-05T04:24:36.033Z,16.80
2022-10-05T04:27:36.027Z,16.80
2022-10-05T04:30:05.741Z,16.90
2022-10-05T04:32:42.061Z,16.80
2022-10-05T04:35:11.805Z,16.90
2022-10-05T04:37:47.382Z,16.80
2022-10-05T04:40:29.093Z,16.80
2022-10-05T04:43:03.323Z,16.80
2022-10-05T04:45:56.680Z,16.90
2022-10-05T04:48:58.976Z,16.90
2022-10-05T04:51:37.296Z,16.90
2022-10-05T04:54:41.496Z,16.80
2022-10-05T04:57:12.872Z,16.90
2022-10-05T05:00:17.148Z,16.90
2022-10-05T05:03:16.888Z,16.90
2022-10-05T05:06:16.331Z,16.90
2022-10-05T05:09:01.432Z,16.90
2022-10-05T05:12:05.693Z,16.90
2022-10-05T05:14:46.221Z,16.90
2022-10-05T05:17:45.065Z,16.90
2022-10-05T05:20:22.514Z,16.90
2022-10-05T05:22:54.603Z,16.90
2022-10-05T05:25:40.016Z,16.90
2022-10-05T05:28:11.797Z,16.90
2022-10-05T05:30:46.443Z,16.90
2022-10-05T05:33:42.159Z,16.90
2022-10-05T05:36:27.551Z,16.90
2022-10-05T05:39:23.761Z,16.90
2022-10-05T05:42:02.211Z,16.90
2022-10-05T05:44:40.234Z,16.90
2022-10-05T05:47:16.435Z,16.90
2022-10-05T05:50:12.791Z,16.90
2022-10-05T05:52:47.193Z,16.90
2022-10-05T05:55:19.420Z,16.90
2022-10-05T05:58:04.738Z,16.90
2022-10-05T06:00:55.643Z,16.90
2022-10-05T06:03:48.932Z,16.90
2022-10-05T06:06:18.700Z,16.90
2022-10-05T06:08:58.380Z,16.90
2022-10-05T06:11:35.118Z,16.90
2022-10-05T06:14:11.737Z,16.90
2022-10-05T06:16:47.684Z,16.90
2022-10-05T06:19:19.249Z,16.90
2022-10-05T06:21:57.870Z,16.90
2022-10-05T06:24:47.588Z,16.90
2022-10-05T06:27:36.833Z,17.00
2022-10-05T06:30:09.156Z,17.00
2022-10-05T06:32:41.239Z,16.90
2022-10-05T06:35:08.229Z,16.90
2022-10-05T06:38:01.830Z,16.80
2022-10-05T06:40:31.703Z,16.80
2022-10-05T06:43:01.853Z,16.80
2022-10-05T06:45:48.683Z,16.80
2022-10-05T06:48:31.490Z,16.80
2022-10-05T06:51:11.072Z,16.90
2022-10-05T06:53:47.461Z,16.90
2022-10-05T06:56:23.178Z,17.00
2022-10-05T06:58:55.120Z,17.00
2022-10-05T07:01:22.085Z,17.10
2022-10-05T07:04:25.800Z,17.10
2022-10-05T07:06:58.479Z,17.20
2022-10-05T07:09:26.910Z,17.20
2022-10-05T07:12:03.734Z,17.20
2022-10-05T07:14:50.554Z,17.30
2022-10-05T07:17:43.529Z,17.30
2022-10-05T07:20:29.491Z,17.40
2022-10-05T07:23:30.053Z,17.40
2022-10-05T07:26:19.328Z,17.40
2022-10-05T07:29:09.306Z,17.50
2022-10-05T07:31:59.473Z,17.50
2022-10-05T07:34:29.402Z,17.50
2022-10-05T07:37:01.824Z,17.50
2022-10-05T07:40:00.130Z,17.60
2022-10-05T07:42:41.746Z,17.50
2022-10-05T07:45:21.190Z,17.50
2022-10-05T07:47:57.770Z,17.40
2022-10-05T07:50:30.220Z,17.40
2022-10-05T07:52:59.005Z,17.40
2022-10-05T07:55:26.992Z,17.50
2022-10-05T07:58:27.163Z,17.60
2022-10-05T08:01:12.929Z,17.70
2022-10-05T08:03:44.370Z,17.80
2022-10-05T08:06:26.689Z,17.80
2022-10-05T08:08:56.427Z,17.90
2022-10-05T08:11:49.020Z,18.00
2022-10-05T08:14:35.771Z,18.20
2022-10-05T08:17:03.995Z,18.30
2022-10-05T08:19:35.395Z,18.30
2022-10-05T08:22:05.193Z,18.20
2022-10-05T08:24:43.823Z,18.20
2022-10-05T08:27:25.767Z,18.20
2022-10-05T08:30:00.821Z,18.30
2022-10-05T08:32:55.466Z,18.30
2022-10-05T08:35:26.146Z,18.40
2022-10-05T08:37:52.892Z,18.40
2022-10-05T08:40:19.699Z,18.50
2022-10-05T08:43:13.702Z,18.50
2022-10-05T08:46:11.575Z,18.60
2022-10-05T08:49:12.233Z,18.70
2022-10-05T08:52:12.740Z,18.90
2022-10-05T08:54:43.887Z,19.00
2022-10-05T08:57:29.332Z,19.10
2022-10-05T09:00:17.571Z,19.30
2022-10-05T09:02:56.766Z,19.40
2022-10-05T09:05:23.675Z,19.60
2022-10-05T09:08:27.965Z,19.80
2022-10-05T09:11:33.571Z,19.90
2022-10-05T09:14:07.145Z,20.10
2022-10-05T09:16:52.843Z,20.40
2022-10-05T09:19:48.211Z,20.50
2022-10-05T09:22:15.704Z,20.60
2022-10-05T09:24:56.407Z,20.70
2022-10-05T09:27:37.491Z,20.80
2022-10-05T09:30:23.804Z,20.90
2022-10-05T09:33:07.006Z,21.10
2022-10-05T09:36:01.796Z,21.10
2022-10-05T09:38:43.621Z,21.10
2022-10-05T09:41:22.508Z,21.10
2022-10-05T09:44:22.638Z,21.20
2022-10-05T09:47:08.851Z,21.20
2022-10-05T09:50:06.062Z,21.50
2022-10-05T09:52:44.941Z,22.10
2022-10-05T09:55:42.613Z,22.60
2022-10-05T09:58:24.352Z,23.30
2022-10-05T10:01:09.146Z,24.20
2022-10-05T10:04:19.613Z,24.80
2022-10-05T10:07:16.485Z,25.20
2022-10-05T10:10:20.412Z,25.70
2022-10-05T10:13:12.534Z,25.90
2022-10-05T10:15:41.121Z,25.70
2022-10-05T10:18:19.900Z,25.70
2022-10-05T10:20:55.233Z,25.80
2022-10-05T10:23:27.376Z,25.60
2022-10-05T10:26:09.605Z,25.40
2022-10-05T10:29:24.385Z,25.00
2022-10-05T10:31:56.695Z,24.70
2022-10-05T10:35:00.685Z,24.60
2022-10-05T10:38:00.014Z,24.20
2022-10-05T10:40:57.397Z,23.70
2022-10-05T10:43:51.560Z,23.10
2022-10-05T10:46:33.170Z,22.60
2022-10-05T10:49:08.147Z,22.20
2022-10-05T10:52:02.097Z,21.80
2022-10-05T10:54:31.655Z,21.60
2022-10-05T10:57:11.831Z,21.40
2022-10-05T11:00:05.607Z,21.20
2022-10-05T11:02:51.074Z,21.10
2022-10-05T11:05:36.354Z,21.10
2022-10-05T11:08:25.989Z,21.70
2022-10-05T11:10:59.854Z,22.20
2022-10-05T11:14:03.631Z,22.50
2022-10-05T11:16:51.218Z,22.70
2022-10-05T11:20:04.833Z,22.90
2022-10-05T11:22:53.687Z,22.80
2022-10-05T11:25:35.669Z,22.50
2022-10-05T11:28:11.088Z,22.10
2022-10-05T11:30:59.287Z,21.80
2022-10-05T11:33:43.883Z,21.50
2022-10-05T11:36:39.630Z,21.30
2022-10-05T11:39:36.765Z,21.10
2022-10-05T11:42:20.915Z,20.90
2022-10-05T11:45:24.823Z,20.70
2022-10-05T11:48:25.766Z,20.60
2022-10-05T11:51:11.580Z,20.50
2022-10-05T11:53:56.990Z,20.40
2022-10-05T11:56:31.574Z,20.30
2022-10-05T11:59:02.439Z,20.40
2022-10-05T12:01:41.175Z,20.40
2022-10-05T12:04:17.125Z,20.30
2022-10-05T12:06:53.384Z,20.30
2022-10-05T12:09:23.347Z,20.40
2022-10-05T12:11:57.903Z,20.50
2022-10-05T12:14:28.724Z,20.50
2022-10-05T12:17:06.835Z,20.60
2022-10-05T12:19:51.597Z,21.20
2022-10-05T12:22:20.456Z,21.60
2022-10-05T12:25:14.878Z,21.90
2022-10-05T12:27:45.112Z,22.40
2022-10-05T12:30:25.192Z,22.70
2022-10-05T12:33:02.238Z,22.50
2022-10-05T12:35:53.508Z,22.40
2022-10-05T12:38:27.256Z,22.10
2022-10-05T12:41:17.412Z,21.70
2022-10-05T12:44:06.644Z,21.30
2022-10-05T12:47:03.631Z,21.00
2022-10-05T12:49:45.495Z,20.60
2022-10-05T12:52:47.989Z,20.30
2022-10-05T12:55:48.962Z,20.00
2022-10-05T12:58:44.391Z,19.80
2022-10-05T13:01:23.326Z,19.60
2022-10-05T13:04:05.334Z,19.40
2022-10-05T13:06:37.790Z,19.20
2022-10-05T13:09:12.771Z,19.10
2022-10-05T13:11:45.346Z,19.00
2022-10-05T13:14:11.987Z,18.90
2022-10-05T13:16:52.480Z,18.80
2022-10-05T13:19:39.980Z,18.80
2022-10-05T13:22:16.223Z,18.90
2022-10-05T13:25:11.893Z,18.90
2022-10-05T13:27:48.229Z,18.90
2022-10-05T13:30:16.293Z,19.00
2022-10-05T13:32:43.017Z,19.00
2022-10-05T13:35:46.629Z,19.10
2022-10-05T13:38:19.331Z,19.10
2022-10-05T13:41:27.847Z,19.10
2022-10-05T13:44:06.189Z,19.10
2022-10-05T13:46:44.774Z,19.10
2022-10-05T13:49:49.203Z,19.10
2022-10-05T13:52:28.444Z,19.10
2022-10-05T13:55:17.554Z,19.10
2022-10-05T13:58:21.065Z,19.00
2022-10-05T14:00:55.629Z,19.00
2022-10-05T14:03:26.414Z,19.00
2022-10-05T14:05:55.898Z,18.90
2022-10-05T14:08:25.503Z,18.90
2022-10-05T14:10:52.199Z,18.90
2022-10-05T14:13:34.625Z,18.80
2022-10-05T14:16:13.852Z,18.80
2022-10-05T14:19:06.404Z,18.80
2022-10-05T14:21:42.913Z,18.70
2022-10-05T14:24:42.271Z,18.70
2022-10-05T14:27:28.587Z,18.70
2022-10-05T14:29:56.348Z,18.60
2022-10-05T14:32:24.308Z,18.70
2022-10-05T14:35:03.442Z,18.70
2022-10-05T14:37:43.598Z,18.70
2022-10-05T14:40:24.011Z,18.60
2022-10-05T14:42:50.754Z,18.70
2022-10-05T14:45:21.856Z,18.60
2022-10-05T14:48:10.706Z,18.70
2022-10-05T14:50:52.889Z,18.70
2022-10-05T14:53:21.098Z,18.80
2022-10-05T14:56:09.513Z,18.80
2022-10-05T14:59:13.263Z,18.90
2022-10-05T15:01:45.041Z,19.10
2022-10-05T15:04:41.292Z,19.00
2022-10-05T15:07:20.162Z,19.00
2022-10-05T15:10:29.160Z,19.00
2022-10-05T15:12:59.211Z,18.90
2022-10-05T15:15:47.414Z,18.80
2022-10-05T15:18:20.154Z,18.80
2022-10-05T15:21:19.609Z,18.70
2022-10-05T15:23:52.818Z,18.60
2022-10-05T15:26:42.886Z,18.50
2022-10-05T15:29:21.751Z,18.40
2022-10-05T15:31:51.646Z,18.30
2022-10-05T15:34:35.997Z,18.30
2022-10-05T15:37:08.705Z,18.30
2022-10-05T15:39:56.300Z,18.20
2022-10-05T15:42:30.066Z,18.20
2022-10-05T15:45:18.539Z,18.20
2022-10-05T15:48:07.599Z,18.20
2022-10-05T15:50:49.362Z,18.20
2022-10-05T15:53:31.543Z,18.10
2022-10-05T15:56:10.605Z,18.00
2022-10-05T15:58:57.028Z,17.90
2022-10-05T16:01:36.575Z,17.80
2022-10-05T16:04:41.849Z,17.80
2022-10-05T16:07:19.266Z,17.70
2022-10-05T16:10:17.176Z,17.60
2022-10-05T16:13:05.315Z,17.60
2022-10-05T16:15:44.474Z,17.50
2022-10-05T16:18:13.964Z,17.40
2022-10-05T16:20:51.448Z,17.40
2022-10-05T16:23:33.370Z,17.30
2022-10-05T16:26:03.675Z,17.30
2022-10-05T16:28:49.691Z,17.30
2022-10-05T16:31:25.759Z,17.30
2022-10-05T16:34:00.499Z,17.30
2022-10-05T16:36:48.760Z,17.30
2022-10-05T16:39:35.749Z,17.20
2022-10-05T16:42:27.257Z,17.10
2022-10-05T16:45:13.325Z,17.10
2022-10-05T16:47:42.805Z,17.00
2022-10-05T16:50:09.681Z,16.90
2022-10-05T16:52:37.955Z,16.80
2022-10-05T16:55:07.200Z,16.80
2022-10-05T16:57:45.473Z,16.80
2022-10-05T17:00:21.697Z,16.80
2022-10-05T17:03:18.586Z,16.80
2022-10-05T17:06:07.371Z,16.70
2022-10-05T17:09:03.654Z,16.60
2022-10-05T17:11:53.190Z,16.50
2022-10-05T17:14:43.436Z,16.30
2022-10-05T17:17:29.256Z,16.20
2022-10-05T17:20:17.082Z,16.20
2022-10-05T17:22:51.901Z,16.10
2022-10-05T17:25:43.165Z,16.00
2022-10-05T17:28:23.313Z,16.00
2022-10-05T17:30:56.344Z,16.00
2022-10-05T17:33:32.627Z,16.00
2022-10-05T17:36:02.354Z,15.90
2022-10-05T17:38:31.970Z,15.90
2022-10-05T17:41:20.506Z,15.80
2022-10-05T17:44:12.193Z,15.80
2022-10-05T17:46:39.817Z,15.80
2022-10-05T17:49:17.922Z,15.70
2022-10-05T17:51:50.492Z,15.70
2022-10-05T17:54:24.834Z,15.60
2022-10-05T17:56:51.503Z,15.60
2022-10-05T17:59:42.975Z,15.50
2022-10-05T18:02:36.818Z,15.50
2022-10-05T18:05:03.923Z,15.40
2022-10-05T18:07:37.249Z,15.40
2022-10-05T18:10:10.229Z,15.40
2022-10-05T18:12:37.242Z,15.30
2022-10-05T18:15:06.844Z,15.20
2022-10-05T18:17:36.329Z,15.20
2022-10-05T18:20:20.956Z,15.20
2022-10-05T18:22:48.419Z,15.10
2022-10-05T18:25:29.254Z,15.10
2022-10-05T18:28:21.106Z,15.10
2022-10-05T18:31:12.893Z,15.10
2022-10-05T18:33:45.182Z,15.00
2022-10-05T18:36:27.692Z,15.00
2022-10-05T18:39:22.653Z,14.90
2022-10-05T18:41:55.637Z,14.90
2022-10-05T18:44:38.907Z,14.90
2022-10-05T18:47:30.849Z,14.90
2022-10-05T18:50:03.587Z,14.90
2022-10-05T18:52:39.475Z,14.80
2022-10-05T18:55:12.141Z,14.80
2022-10-05T18:57:38.769Z,14.80
2022-10-05T19:00:25.615Z,14.70
2022-10-05T19:02:54.722Z,14.70
2022-10-05T19:05:46.300Z,14.70
2022-10-05T19:08:34.594Z,14.70
2022-10-05T19:11:26.208Z,14.80
2022-10-05T19:14:14.497Z,14.90
2022-10-05T19:17:05.957Z,14.90
2022-10-05T19:19:54.551Z,15.00
2022-10-05T19:22:49.331Z,15.00
2022-10-05T19:25:38.234Z,15.00
2022-10-05T19:28:36.813Z,15.00
2022-10-05T19:31:12.771Z,15.00
2022-10-05T19:34:17.382Z,15.00
2022-10-05T19:37:06.089Z,14.90
2022-10-05T19:39:39.664Z,14.80
2022-10-05T19:42:43.272Z,14.80
2022-10-05T19:45:26.496Z,14.70
2022-10-05T19:48:21.235Z,14.60
2022-10-05T19:51:12.381Z,14.60
2022-10-05T19:53:43.309Z,14.50
2022-10-05T19:56:24.107Z,14.50
2022-10-05T19:58:51.249Z,14.40
2022-10-05T20:01:29.883Z,14.40
2022-10-05T20:03:56.615Z,14.40
2022-10-05T20:06:23.472Z,14.30
2022-10-05T20:08:51.788Z,14.30
2022-10-05T20:11:20.124Z,14.30
2022-10-05T20:13:52.910Z,14.30
2022-10-05T20:16:19.593Z,14.30
2022-10-05T20:18:46.290Z,14.20
2022-10-05T20:21:57.968Z,14.20
2022-10-05T20:24:26.004Z,14.10
2022-10-05T20:26:54.336Z,14.10
2022-10-05T20:29:21.020Z,14.10
2022-10-05T20:31:47.715Z,14.00
2022-10-05T20:34:14.398Z,14.00
2022-10-05T20:36:41.681Z,14.00
2022-10-05T20:39:09.448Z,14.00
2022-10-05T20:41:40.155Z,14.00
2022-10-05T20:44:07.321Z,14.00
2022-10-05T20:46:34.074Z,14.00
2022-10-05T20:49:00.939Z,14.00
2022-10-05T20:51:27.658Z,14.00
2022-10-05T20:53:57.588Z,13.90
2022-10-05T20:56:24.644Z,13.90
2022-10-05T20:58:51.294Z,13.90
2022-10-05T21:01:18.163Z,13.80
2022-10-05T21:03:45.152Z,13.80
2022-10-05T21:06:12.081Z,13.80
2022-10-05T21:08:38.810Z,13.80
2022-10-05T21:11:05.710Z,13.80
2022-10-05T21:13:32.441Z,13.80
2022-10-05T21:15:59.185Z,13.80
2022-10-05T21:18:26.347Z,13.80
2022-10-05T21:20:53.386Z,13.80
2022-10-05T21:23:20.052Z,13.80
2022-10-05T21:25:46.731Z,13.70
2022-10-05T21:28:13.421Z,13.70
2022-10-05T21:30:40.179Z,13.70
2022-10-05T21:33:06.832Z,13.70
2022-10-05T21:35:33.554Z,13.70
2022-10-05T21:38:00.306Z,13.70
2022-10-05T21:40:26.985Z,13.70
2022-10-05T21:42:53.647Z,13.70
2022-10-05T21:45:20.327Z,13.70
2022-10-05T21:47:47.018Z,13.70
2022-10-05T21:50:13.704Z,13.60
2022-10-05T21:52:40.371Z,13.70
2022-10-05T21:55:07.376Z,13.70
2022-10-05T21:57:34.246Z,13.60
2022-10-05T22:00:01.038Z,13.60
2022-10-05T22:02:27.738Z,13.60
2022-10-05T22:04:54.471Z,13.60
2022-10-05T22:07:21.192Z,13.60
2022-10-05T22:09:48.781Z,13.60
2022-10-05T22:12:15.584Z,13.50
2022-10-05T22:14:42.324Z,13.50
2022-10-05T22:17:43.322Z,13.50
2022-10-05T22:20:11.422Z,13.50
2022-10-05T22:22:40.746Z,13.50
2022-10-05T22:25:10.168Z,13.50
2022-10-05T22:27:36.948Z,13.50
2022-10-05T22:30:04.172Z,13.50
2022-10-05T22:32:30.857Z,13.50
2022-10-05T22:34:57.749Z,13.40
2022-10-05T22:37:24.533Z,13.40
2022-10-05T22:39:55.773Z,13.40
2022-10-05T22:42:22.728Z,13.40
2022-10-05T22:44:49.672Z,13.40
2022-10-05T22:47:16.516Z,13.30
2022-10-05T22:49:45.246Z,13.30
2022-10-05T22:52:11.959Z,13.30
2022-10-05T22:54:38.803Z,13.30
2022-10-05T22:57:05.465Z,13.20
2022-10-05T22:59:32.139Z,13.20
2022-10-05T23:01:58.931Z,13.20
2022-10-05T23:04:25.682Z,13.20
2022-10-05T23:06:52.363Z,13.20
2022-10-05T23:09:19.082Z,13.20
2022-10-05T23:11:45.798Z,13.20
2022-10-05T23:14:12.491Z,13.10
2022-10-05T23:16:39.539Z,13.20
2022-10-05T23:19:06.303Z,13.10
2022-10-05T23:21:33.616Z,13.20
2022-10-05T23:24:00.293Z,13.10
2022-10-05T23:26:26.995Z,13.10
2022-10-05T23:28:53.766Z,13.10
2022-10-05T23:31:25.362Z,13.10
2022-10-05T23:33:52.806Z,13.10
2022-10-05T23:36:26.874Z,13.10
2022-10-05T23:38:54.159Z,13.10
2022-10-05T23:41:20.879Z,13.10
2022-10-05T23:43:47.613Z,13.10
2022-10-05T23:46:17.179Z,13.00
2022-10-05T23:48:43.919Z,13.00
2022-10-05T23:51:12.098Z,13.00
2022-10-05T23:53:38.846Z,13.00
2022-10-05T23:56:05.684Z,12.90
2022-10-05T23:58:32.617Z,12.90
